createdAt,value
2019-03-27T00:04:42.287Z,102789.20
2019-03-27T00:09:36.280Z,102776.72
2019-03-27T00:14:30.451Z,102783.23
2019-03-27T00:19:24.424Z,102780.38
2019-03-27T00:24:18.492Z,102787.13
2019-03-27T00:29:12.423Z,102789.73
2019-03-27T00:34:06.518Z,102792.77
2019-03-27T00:39:00.474Z,102789.30
2019-03-27T00:43:54.445Z,102786.27
2019-03-27T00:48:48.508Z,102781.69
2019-03-27T00:53:42.498Z,102787.23
2019-03-27T00:58:36.474Z,102789.48
2019-03-27T01:03:30.453Z,102786.16
2019-03-27T01:08:24.408Z,102790.59
2019-03-27T01:13:18.370Z,102790.84
2019-03-27T01:18:12.352Z,102793.27
2019-03-27T01:23:06.395Z,102781.84
2019-03-27T01:28:00.358Z,102773.53
2019-03-27T01:32:54.296Z,102775.35
2019-03-27T01:37:48.263Z,102776.46
2019-03-27T01:42:42.329Z,102772.64
2019-03-27T01:47:36.310Z,102771.96
2019-03-27T01:52:30.308Z,102777.74
2019-03-27T01:57:24.279Z,102783.13
2019-03-27T02:02:18.566Z,102779.09
2019-03-27T02:07:12.526Z,102787.98
2019-03-27T02:12:06.495Z,102790.34
2019-03-27T02:17:00.423Z,102788.80
2019-03-27T02:21:54.372Z,102791.45
2019-03-27T02:26:48.341Z,102792.55
2019-03-27T02:31:42.308Z,102804.56
2019-03-27T02:36:36.276Z,102798.47
2019-03-27T02:41:30.228Z,102784.03
2019-03-27T02:46:25.550Z,102780.73
2019-03-27T02:51:19.781Z,102785.80
2019-03-27T02:56:13.803Z,102789.69
2019-03-27T03:01:07.877Z,102789.52
2019-03-27T03:06:01.948Z,102787.72
2019-03-27T03:10:56.057Z,102774.51
2019-03-27T03:15:50.009Z,102773.09
2019-03-27T03:20:43.968Z,102768.50
2019-03-27T03:25:37.943Z,102765.81
2019-03-27T03:30:31.936Z,102776.55
2019-03-27T03:35:25.913Z,102784.70
2019-03-27T03:40:20.345Z,102786.32
2019-03-27T03:45:14.610Z,102791.34
2019-03-27T03:50:12.474Z,102792.12
2019-03-27T03:55:06.721Z,102802.41
2019-03-27T04:00:01.614Z,102801.20
2019-03-27T04:04:56.059Z,102800.69
2019-03-27T04:09:50.061Z,102799.84
2019-03-27T04:14:44.026Z,102817.97
2019-03-27T04:19:38.002Z,102818.51
2019-03-27T04:24:31.970Z,102823.58
2019-03-27T04:29:25.925Z,102834.46
2019-03-27T04:34:19.907Z,102841.33
2019-03-27T04:39:13.867Z,102841.33
2019-03-27T04:44:07.865Z,102840.42
2019-03-27T04:49:02.184Z,102842.78
2019-03-27T04:53:56.285Z,102854.38
2019-03-27T04:58:50.270Z,102859.64
2019-03-27T05:03:44.218Z,102860.25
2019-03-27T05:08:38.265Z,102849.92
2019-03-27T05:13:32.216Z,102860.63
2019-03-27T05:18:26.317Z,102859.47
2019-03-27T05:23:20.270Z,102860.98
2019-03-27T05:28:14.412Z,102860.37
2019-03-27T05:33:08.443Z,102855.43
2019-03-27T05:38:02.588Z,102866.02
2019-03-27T05:43:01.069Z,102869.43
2019-03-27T05:47:59.381Z,102875.89
2019-03-27T05:52:48.482Z,102891.27
2019-03-27T05:57:42.472Z,102900.17
2019-03-27T06:02:36.601Z,102905.78
2019-03-27T06:07:30.600Z,102904.80
2019-03-27T06:12:24.654Z,102916.19
2019-03-27T06:17:18.619Z,102914.89
2019-03-27T06:22:14.990Z,102912.30
2019-03-27T06:27:08.566Z,102903.30
2019-03-27T06:32:02.740Z,102904.25
2019-03-27T06:36:56.711Z,102902.45
2019-03-27T06:41:50.692Z,102914.36
2019-03-27T06:46:44.782Z,102917.36
2019-03-27T06:51:40.305Z,102920.20
2019-03-27T06:56:34.740Z,102922.92
2019-03-27T07:01:28.907Z,102932.05
2019-03-27T07:06:22.898Z,102938.66
2019-03-27T07:11:16.972Z,102948.34
2019-03-27T07:16:11.042Z,102943.12
2019-03-27T07:21:05.372Z,102945.19
2019-03-27T07:25:59.444Z,102946.03
2019-03-27T07:30:55.354Z,102948.02
2019-03-27T07:35:49.318Z,102940.25
2019-03-27T07:40:43.403Z,102938.94
2019-03-27T07:45:37.396Z,102936.52
2019-03-27T07:50:31.507Z,102945.63
2019-03-27T07:55:25.503Z,102938.41
2019-03-27T08:00:21.483Z,102941.02
2019-03-27T08:05:15.448Z,102946.73
2019-03-27T08:10:09.886Z,102941.47
2019-03-27T08:15:05.213Z,102945.63
2019-03-27T08:19:59.165Z,102952.23
2019-03-27T08:24:53.144Z,102959.42
2019-03-27T08:29:47.113Z,102960.72
2019-03-27T08:34:41.268Z,102962.57
2019-03-27T08:39:35.243Z,102958.81
2019-03-27T08:44:29.446Z,102963.14
2019-03-27T08:49:23.705Z,102971.77
2019-03-27T08:54:17.721Z,102972.77
2019-03-27T08:59:11.686Z,102961.62
2019-03-27T09:04:05.950Z,102980.70
2019-03-27T09:08:59.937Z,102982.16
2019-03-27T09:13:53.918Z,102977.29
2019-03-27T09:18:47.925Z,102987.20
2019-03-27T09:23:45.429Z,102992.16
2019-03-27T09:28:37.894Z,102991.31
2019-03-27T09:33:31.963Z,102985.70
2019-03-27T09:38:26.076Z,102985.96
2019-03-27T09:43:20.054Z,102981.98
2019-03-27T09:48:14.150Z,102988.92
2019-03-27T09:53:08.177Z,102985.77
2019-03-27T09:58:02.273Z,102990.33
2019-03-27T10:02:57.288Z,102987.40
2019-03-27T10:07:51.387Z,102983.31
2019-03-27T10:12:45.508Z,102986.66
2019-03-27T10:17:39.476Z,102987.44
2019-03-27T10:22:33.645Z,102990.14
2019-03-27T10:27:27.755Z,102981.75
2019-03-27T10:32:21.835Z,102991.07
2019-03-27T10:37:15.956Z,102983.97
2019-03-27T10:42:09.940Z,102987.95
2019-03-27T10:47:04.077Z,102987.81
2019-03-27T10:51:58.156Z,102987.47
2019-03-27T10:56:52.293Z,102983.39
2019-03-27T11:01:46.296Z,102986.98
2019-03-27T11:06:40.350Z,102990.23
2019-03-27T11:11:34.497Z,102987.13
2019-03-27T11:16:28.513Z,102986.88
2019-03-27T11:21:22.588Z,102990.89
2019-03-27T11:26:16.690Z,102983.89
2019-03-27T11:31:10.775Z,102983.08
2019-03-27T11:36:04.834Z,102979.52
2019-03-27T11:40:58.822Z,102971.83
2019-03-27T11:45:52.778Z,102957.38
2019-03-27T11:50:46.761Z,102953.80
2019-03-27T11:55:40.795Z,102955.88
2019-03-27T12:00:34.871Z,102968.66
2019-03-27T12:05:29.206Z,102965.03
2019-03-27T12:10:23.273Z,102973.82
2019-03-27T12:15:21.116Z,102973.66
2019-03-27T12:20:15.340Z,102959.13
2019-03-27T12:25:09.560Z,102947.38
2019-03-27T12:30:07.456Z,102937.85
2019-03-27T12:35:02.162Z,102946.30
2019-03-27T12:39:56.240Z,102950.27
2019-03-27T12:44:50.258Z,102941.30
2019-03-27T12:49:44.248Z,102936.61
2019-03-27T12:54:38.250Z,102937.99
2019-03-27T12:59:32.466Z,102930.42
2019-03-27T13:04:26.562Z,102935.49
2019-03-27T13:09:20.543Z,102931.78
2019-03-27T13:14:14.549Z,102930.55
2019-03-27T13:19:08.670Z,102930.55
2019-03-27T13:24:02.827Z,102930.23
2019-03-27T13:28:56.816Z,102941.64
2019-03-27T13:33:50.826Z,102933.89
2019-03-27T13:38:45.051Z,102933.30
2019-03-27T13:43:39.154Z,102926.17
2019-03-27T13:48:33.126Z,102922.05
2019-03-27T13:53:27.287Z,102927.52
2019-03-27T13:58:21.473Z,102932.53
2019-03-27T14:03:15.436Z,102926.85
2019-03-27T14:08:09.465Z,102920.25
2019-03-27T14:13:03.430Z,102929.94
2019-03-27T14:17:57.428Z,102933.74
2019-03-27T14:22:51.495Z,102936.33
2019-03-27T14:27:45.682Z,102941.47
2019-03-27T14:32:39.945Z,102933.78
2019-03-27T14:37:34.129Z,102937.98
2019-03-27T14:42:28.135Z,102919.66
2019-03-27T14:47:22.149Z,102915.07
2019-03-27T14:52:16.222Z,102911.19
2019-03-27T14:57:10.237Z,102914.05
2019-03-27T15:02:04.813Z,102909.41
2019-03-27T15:06:58.792Z,102922.59
2019-03-27T15:11:52.774Z,102924.66
2019-03-27T15:16:46.860Z,102927.31
2019-03-27T15:21:41.256Z,102922.13
2019-03-27T15:26:35.354Z,102926.27
2019-03-27T15:31:29.425Z,102923.28
2019-03-27T15:36:23.440Z,102915.55
2019-03-27T15:41:17.404Z,102919.22
2019-03-27T15:46:11.403Z,102916.53
2019-03-27T15:51:05.432Z,102916.55
2019-03-27T15:55:59.432Z,102914.84
2019-03-27T16:00:53.415Z,102916.90
2019-03-27T16:05:47.413Z,102918.13
2019-03-27T16:10:41.667Z,102908.69
2019-03-27T16:15:37.197Z,102915.34
2019-03-27T16:20:31.481Z,102913.91
2019-03-27T16:25:25.460Z,102910.80
2019-03-27T16:30:19.548Z,102914.24
2019-03-27T16:35:13.641Z,102908.36
2019-03-27T16:40:08.462Z,102902.77
2019-03-27T16:45:04.880Z,102908.42
2019-03-27T16:49:58.961Z,102911.29
2019-03-27T16:54:52.994Z,102919.98
2019-03-27T16:59:46.955Z,102922.27
2019-03-27T17:04:40.965Z,102919.50
2019-03-27T17:09:35.065Z,102936.38
2019-03-27T17:14:29.050Z,102932.99
2019-03-27T17:19:24.505Z,102931.86
2019-03-27T17:24:18.551Z,102934.35
2019-03-27T17:29:12.645Z,102938.02
2019-03-27T17:34:06.662Z,102937.91
2019-03-27T17:39:00.625Z,102943.38
2019-03-27T17:43:54.832Z,102943.12
2019-03-27T17:48:48.818Z,102948.30
2019-03-27T17:53:43.053Z,102944.02
2019-03-27T17:58:37.112Z,102941.28
2019-03-27T18:03:31.189Z,102939.63
2019-03-27T18:08:25.185Z,102947.12
2019-03-27T18:13:19.488Z,102950.78
2019-03-27T18:18:13.573Z,102952.44
2019-03-27T18:23:07.891Z,102954.56
2019-03-27T18:28:01.924Z,102962.01
2019-03-27T18:32:55.916Z,102968.12
2019-03-27T18:37:50.020Z,102971.76
2019-03-27T18:42:44.033Z,102970.59
2019-03-27T18:47:38.140Z,102979.51
2019-03-27T18:52:32.337Z,102986.53
2019-03-27T18:57:26.415Z,102984.87
2019-03-27T19:02:20.521Z,102994.96
2019-03-27T19:07:14.621Z,103005.44
2019-03-27T19:12:08.771Z,102999.59
2019-03-27T19:17:02.951Z,103007.95
2019-03-27T19:21:56.938Z,103010.61
2019-03-27T19:26:51.244Z,103013.58
2019-03-27T19:31:45.424Z,103018.98
2019-03-27T19:36:39.528Z,103029.25
2019-03-27T19:41:33.659Z,103023.90
2019-03-27T19:46:27.992Z,103023.17
2019-03-27T19:51:22.176Z,103022.23
2019-03-27T19:56:16.333Z,103019.11
2019-03-27T20:01:10.469Z,103021.84
2019-03-27T20:06:04.546Z,103018.22
2019-03-27T20:10:58.549Z,103020.58
2019-03-27T20:15:52.557Z,103029.61
2019-03-27T20:20:46.621Z,103028.28
2019-03-27T20:25:40.773Z,103022.02
2019-03-27T20:30:34.859Z,103024.41
2019-03-27T20:35:29.137Z,103031.91
2019-03-27T20:40:23.159Z,103026.08
2019-03-27T20:45:17.256Z,103030.77
2019-03-27T20:50:11.867Z,103031.50
2019-03-27T20:55:06.309Z,103033.42
2019-03-27T21:00:00.436Z,103034.47
2019-03-27T21:04:54.570Z,103038.52
2019-03-27T21:09:48.679Z,103039.73
2019-03-27T21:14:42.696Z,103039.15
2019-03-27T21:19:36.947Z,103035.64
2019-03-27T21:24:31.059Z,103037.08
2019-03-27T21:29:25.116Z,103031.91
2019-03-27T21:34:19.268Z,103035.91
2019-03-27T21:39:13.430Z,103050.09
2019-03-27T21:44:07.427Z,103047.83
2019-03-27T21:49:01.746Z,103041.64
2019-03-27T21:53:55.998Z,103036.84
2019-03-27T21:58:49.995Z,103043.42
2019-03-27T22:03:44.077Z,103052.16
2019-03-27T22:08:38.216Z,103051.80
2019-03-27T22:13:32.400Z,103047.95
2019-03-27T22:18:26.649Z,103047.59
2019-03-27T22:23:20.642Z,103051.06
2019-03-27T22:28:14.743Z,103046.50
2019-03-27T22:33:08.709Z,103053.86
2019-03-27T22:38:02.784Z,103058.60
2019-03-27T22:42:57.054Z,103063.15
2019-03-27T22:47:51.174Z,103062.77
2019-03-27T22:52:45.146Z,103062.84
2019-03-27T22:57:39.304Z,103062.45
2019-03-27T23:02:33.393Z,103061.34
2019-03-27T23:07:27.632Z,103061.84
2019-03-27T23:12:21.727Z,103065.59
2019-03-27T23:17:15.793Z,103066.28
2019-03-27T23:22:09.792Z,103067.84
2019-03-27T23:27:03.849Z,103069.17
2019-03-27T23:31:57.857Z,103068.88
2019-03-27T23:36:51.954Z,103069.34
2019-03-27T23:41:45.906Z,103062.87
2019-03-27T23:46:40.077Z,103067.90
2019-03-27T23:51:34.040Z,103069.66
2019-03-27T23:56:28.031Z,103068.13
